sensor_id;sensor_type;location;lat;lon;timestamp;P1;durP1;ratioP1;P2;durP2;ratioP2
64401;SDS011;50724;42.376;23.768;2023-11-18T00:00:53;0.73;;;0.73;;
64401;SDS011;50724;42.376;23.768;2023-11-18T00:03:53;1.40;;;0.60;;
64401;SDS011;50724;42.376;23.768;2023-11-18T00:07:05;0.82;;;0.60;;
64401;SDS011;50724;42.376;23.768;2023-11-18T00:10:05;0.90;;;0.80;;
64401;SDS011;50724;42.376;23.768;2023-11-18T00:13:06;0.95;;;0.70;;
64401;SDS011;50724;42.376;23.768;2023-11-18T00:16:06;0.80;;;0.67;;
64401;SDS011;50724;42.376;23.768;2023-11-18T00:19:12;0.70;;;0.68;;
64401;SDS011;50724;42.376;23.768;2023-11-18T00:22:12;0.65;;;0.43;;
64401;SDS011;50724;42.376;23.768;2023-11-18T00:25:13;0.30;;;0.30;;
64401;SDS011;50724;42.376;23.768;2023-11-18T00:28:14;0.52;;;0.50;;
64401;SDS011;50724;42.376;23.768;2023-11-18T00:31:14;0.63;;;0.57;;
64401;SDS011;50724;42.376;23.768;2023-11-18T00:34:15;0.38;;;0.38;;
64401;SDS011;50724;42.376;23.768;2023-11-18T00:37:15;1.03;;;0.67;;
64401;SDS011;50724;42.376;23.768;2023-11-18T00:40:15;0.30;;;0.30;;
64401;SDS011;50724;42.376;23.768;2023-11-18T00:43:24;0.93;;;0.70;;
64401;SDS011;50724;42.376;23.768;2023-11-18T00:46:25;0.50;;;0.50;;
64401;SDS011;50724;42.376;23.768;2023-11-18T00:49:25;1.08;;;0.68;;
64401;SDS011;50724;42.376;23.768;2023-11-18T00:52:34;0.60;;;0.60;;
64401;SDS011;50724;42.376;23.768;2023-11-18T00:58:36;0.30;;;0.30;;
64401;SDS011;50724;42.376;23.768;2023-11-18T01:01:40;0.47;;;0.47;;
64401;SDS011;50724;42.376;23.768;2023-11-18T01:04:40;1.33;;;0.60;;
64401;SDS011;50724;42.376;23.768;2023-11-18T01:07:40;0.50;;;0.50;;
64401;SDS011;50724;42.376;23.768;2023-11-18T01:10:41;1.20;;;0.73;;
64401;SDS011;50724;42.376;23.768;2023-11-18T01:13:42;1.08;;;0.60;;
64401;SDS011;50724;42.376;23.768;2023-11-18T01:16:42;0.98;;;0.55;;
64401;SDS011;50724;42.376;23.768;2023-11-18T01:19:44;0.45;;;0.40;;
64401;SDS011;50724;42.376;23.768;2023-11-18T01:22:44;0.73;;;0.60;;
64401;SDS011;50724;42.376;23.768;2023-11-18T01:25:45;1.88;;;0.60;;
64401;SDS011;50724;42.376;23.768;2023-11-18T01:28:46;1.27;;;0.70;;
64401;SDS011;50724;42.376;23.768;2023-11-18T01:31:46;0.68;;;0.68;;
64401;SDS011;50724;42.376;23.768;2023-11-18T01:34:47;0.67;;;0.57;;
64401;SDS011;50724;42.376;23.768;2023-11-18T01:37:50;1.27;;;0.70;;
64401;SDS011;50724;42.376;23.768;2023-11-18T01:40:50;0.40;;;0.40;;
64401;SDS011;50724;42.376;23.768;2023-11-18T01:43:51;1.23;;;0.50;;
64401;SDS011;50724;42.376;23.768;2023-11-18T01:46:51;0.43;;;0.43;;
64401;SDS011;50724;42.376;23.768;2023-11-18T01:49:53;0.80;;;0.55;;
64401;SDS011;50724;42.376;23.768;2023-11-18T01:52:54;1.17;;;0.70;;
64401;SDS011;50724;42.376;23.768;2023-11-18T01:55:54;0.93;;;0.60;;
64401;SDS011;50724;42.376;23.768;2023-11-18T01:58:55;0.82;;;0.40;;
64401;SDS011;50724;42.376;23.768;2023-11-18T02:01:56;0.65;;;0.35;;
64401;SDS011;50724;42.376;23.768;2023-11-18T02:04:59;0.43;;;0.40;;
64401;SDS011;50724;42.376;23.768;2023-11-18T02:08:01;1.00;;;0.63;;
64401;SDS011;50724;42.376;23.768;2023-11-18T02:11:14;0.90;;;0.60;;
64401;SDS011;50724;42.376;23.768;2023-11-18T02:14:25;0.40;;;0.40;;
64401;SDS011;50724;42.376;23.768;2023-11-18T02:17:27;0.65;;;0.65;;
64401;SDS011;50724;42.376;23.768;2023-11-18T02:20:29;0.40;;;0.40;;
64401;SDS011;50724;42.376;23.768;2023-11-18T02:23:30;1.45;;;0.80;;
64401;SDS011;50724;42.376;23.768;2023-11-18T02:26:31;0.98;;;0.60;;
64401;SDS011;50724;42.376;23.768;2023-11-18T02:29:38;0.37;;;0.37;;
64401;SDS011;50724;42.376;23.768;2023-11-18T02:32:45;1.45;;;0.90;;
64401;SDS011;50724;42.376;23.768;2023-11-18T02:36:26;1.17;;;0.60;;
64401;SDS011;50724;42.376;23.768;2023-11-18T02:39:39;0.77;;;0.60;;
64401;SDS011;50724;42.376;23.768;2023-11-18T02:42:43;1.52;;;0.80;;
64401;SDS011;50724;42.376;23.768;2023-11-18T02:45:45;1.85;;;0.60;;
64401;SDS011;50724;42.376;23.768;2023-11-18T02:48:46;0.82;;;0.60;;
64401;SDS011;50724;42.376;23.768;2023-11-18T02:51:47;1.70;;;0.73;;
64401;SDS011;50724;42.376;23.768;2023-11-18T02:54:47;1.02;;;0.70;;
64401;SDS011;50724;42.376;23.768;2023-11-18T02:57:48;0.57;;;0.52;;
64401;SDS011;50724;42.376;23.768;2023-11-18T03:00:52;1.38;;;0.95;;
64401;SDS011;50724;42.376;23.768;2023-11-18T03:03:53;1.23;;;0.82;;
64401;SDS011;50724;42.376;23.768;2023-11-18T03:06:54;1.08;;;0.82;;
64401;SDS011;50724;42.376;23.768;2023-11-18T03:09:55;1.13;;;0.82;;
64401;SDS011;50724;42.376;23.768;2023-11-18T03:12:57;0.98;;;0.70;;
64401;SDS011;50724;42.376;23.768;2023-11-18T03:15:57;0.80;;;0.70;;
64401;SDS011;50724;42.376;23.768;2023-11-18T03:18:58;2.43;;;1.10;;
64401;SDS011;50724;42.376;23.768;2023-11-18T03:21:59;2.22;;;1.08;;
64401;SDS011;50724;42.376;23.768;2023-11-18T03:24:59;1.90;;;1.00;;
64401;SDS011;50724;42.376;23.768;2023-11-18T03:28:00;2.28;;;0.98;;
64401;SDS011;50724;42.376;23.768;2023-11-18T03:31:00;2.10;;;1.02;;
64401;SDS011;50724;42.376;23.768;2023-11-18T03:34:01;1.17;;;0.95;;
64401;SDS011;50724;42.376;23.768;2023-11-18T03:37:04;1.45;;;0.98;;
64401;SDS011;50724;42.376;23.768;2023-11-18T03:40:05;1.15;;;0.80;;
64401;SDS011;50724;42.376;23.768;2023-11-18T03:43:09;1.15;;;0.80;;
64401;SDS011;50724;42.376;23.768;2023-11-18T03:46:11;1.58;;;0.88;;
64401;SDS011;50724;42.376;23.768;2023-11-18T03:49:11;2.23;;;1.20;;
64401;SDS011;50724;42.376;23.768;2023-11-18T03:52:12;2.78;;;1.30;;
64401;SDS011;50724;42.376;23.768;2023-11-18T03:55:12;1.90;;;1.00;;
64401;SDS011;50724;42.376;23.768;2023-11-18T03:58:13;3.72;;;1.45;;
64401;SDS011;50724;42.376;23.768;2023-11-18T04:01:20;2.77;;;1.50;;
64401;SDS011;50724;42.376;23.768;2023-11-18T04:04:20;2.75;;;1.48;;
64401;SDS011;50724;42.376;23.768;2023-11-18T04:07:21;2.83;;;1.40;;
64401;SDS011;50724;42.376;23.768;2023-11-18T04:10:21;3.15;;;1.90;;
64401;SDS011;50724;42.376;23.768;2023-11-18T04:13:22;2.78;;;1.45;;
64401;SDS011;50724;42.376;23.768;2023-11-18T04:16:23;2.70;;;1.40;;
64401;SDS011;50724;42.376;23.768;2023-11-18T04:19:23;2.43;;;1.40;;
64401;SDS011;50724;42.376;23.768;2023-11-18T04:22:23;2.43;;;1.50;;
64401;SDS011;50724;42.376;23.768;2023-11-18T04:25:24;4.73;;;2.20;;
64401;SDS011;50724;42.376;23.768;2023-11-18T04:28:25;3.33;;;1.85;;
64401;SDS011;50724;42.376;23.768;2023-11-18T04:31:27;3.53;;;2.13;;
64401;SDS011;50724;42.376;23.768;2023-11-18T04:34:27;4.55;;;1.88;;
64401;SDS011;50724;42.376;23.768;2023-11-18T04:37:28;3.75;;;1.55;;
64401;SDS011;50724;42.376;23.768;2023-11-18T04:40:28;2.17;;;1.30;;
64401;SDS011;50724;42.376;23.768;2023-11-18T04:43:28;2.97;;;1.47;;
64401;SDS011;50724;42.376;23.768;2023-11-18T04:46:39;2.83;;;1.60;;
64401;SDS011;50724;42.376;23.768;2023-11-18T04:49:39;3.30;;;1.50;;
64401;SDS011;50724;42.376;23.768;2023-11-18T04:52:40;3.13;;;1.65;;
64401;SDS011;50724;42.376;23.768;2023-11-18T04:55:41;3.03;;;1.65;;
64401;SDS011;50724;42.376;23.768;2023-11-18T04:58:42;3.03;;;1.70;;
64401;SDS011;50724;42.376;23.768;2023-11-18T05:01:42;2.78;;;1.70;;
64401;SDS011;50724;42.376;23.768;2023-11-18T05:04:42;3.70;;;1.80;;
64401;SDS011;50724;42.376;23.768;2023-11-18T05:07:43;4.00;;;2.30;;
64401;SDS011;50724;42.376;23.768;2023-11-18T05:10:46;4.75;;;2.25;;
64401;SDS011;50724;42.376;23.768;2023-11-18T05:13:47;4.70;;;2.30;;
64401;SDS011;50724;42.376;23.768;2023-11-18T05:16:49;4.18;;;2.38;;
64401;SDS011;50724;42.376;23.768;2023-11-18T05:19:49;3.30;;;2.05;;
64401;SDS011;50724;42.376;23.768;2023-11-18T05:22:50;3.33;;;2.00;;
64401;SDS011;50724;42.376;23.768;2023-11-18T05:25:50;4.90;;;2.43;;
64401;SDS011;50724;42.376;23.768;2023-11-18T05:28:51;4.50;;;2.45;;
64401;SDS011;50724;42.376;23.768;2023-11-18T05:31:51;3.75;;;1.65;;
64401;SDS011;50724;42.376;23.768;2023-11-18T05:34:52;4.28;;;2.25;;
64401;SDS011;50724;42.376;23.768;2023-11-18T05:37:54;3.50;;;1.65;;
64401;SDS011;50724;42.376;23.768;2023-11-18T05:40:55;3.42;;;1.85;;
64401;SDS011;50724;42.376;23.768;2023-11-18T05:43:56;3.22;;;1.60;;
64401;SDS011;50724;42.376;23.768;2023-11-18T05:46:59;5.80;;;1.95;;
64401;SDS011;50724;42.376;23.768;2023-11-18T05:50:11;2.83;;;1.52;;
64401;SDS011;50724;42.376;23.768;2023-11-18T05:53:14;2.53;;;1.38;;
64401;SDS011;50724;42.376;23.768;2023-11-18T05:56:15;2.43;;;1.37;;
64401;SDS011;50724;42.376;23.768;2023-11-18T05:59:19;3.65;;;1.65;;
64401;SDS011;50724;42.376;23.768;2023-11-18T06:02:19;1.95;;;1.20;;
64401;SDS011;50724;42.376;23.768;2023-11-18T06:05:21;2.10;;;1.23;;
64401;SDS011;50724;42.376;23.768;2023-11-18T06:08:26;2.33;;;1.20;;
64401;SDS011;50724;42.376;23.768;2023-11-18T06:11:26;0.93;;;0.80;;
64401;SDS011;50724;42.376;23.768;2023-11-18T06:14:29;2.53;;;1.00;;
64401;SDS011;50724;42.376;23.768;2023-11-18T06:17:29;1.85;;;1.00;;
64401;SDS011;50724;42.376;23.768;2023-11-18T06:20:29;1.47;;;0.90;;
64401;SDS011;50724;42.376;23.768;2023-11-18T06:23:30;2.40;;;1.20;;
64401;SDS011;50724;42.376;23.768;2023-11-18T06:26:32;2.50;;;1.05;;
64401;SDS011;50724;42.376;23.768;2023-11-18T06:29:41;1.05;;;0.60;;
64401;SDS011;50724;42.376;23.768;2023-11-18T06:32:42;1.00;;;0.90;;
64401;SDS011;50724;42.376;23.768;2023-11-18T06:35:42;0.60;;;0.60;;
64401;SDS011;50724;42.376;23.768;2023-11-18T06:38:45;2.22;;;0.80;;
64401;SDS011;50724;42.376;23.768;2023-11-18T06:41:46;1.25;;;0.63;;
64401;SDS011;50724;42.376;23.768;2023-11-18T06:44:51;1.05;;;0.80;;
64401;SDS011;50724;42.376;23.768;2023-11-18T06:47:51;2.08;;;1.17;;
64401;SDS011;50724;42.376;23.768;2023-11-18T06:51:00;1.02;;;0.93;;
64401;SDS011;50724;42.376;23.768;2023-11-18T06:54:05;1.88;;;0.90;;
64401;SDS011;50724;42.376;23.768;2023-11-18T06:57:09;1.33;;;0.93;;
64401;SDS011;50724;42.376;23.768;2023-11-18T07:00:10;1.55;;;0.77;;
64401;SDS011;50724;42.376;23.768;2023-11-18T07:03:14;1.83;;;0.93;;
64401;SDS011;50724;42.376;23.768;2023-11-18T07:06:18;4.25;;;1.20;;
64401;SDS011;50724;42.376;23.768;2023-11-18T07:09:26;1.63;;;1.17;;
64401;SDS011;50724;42.376;23.768;2023-11-18T07:12:27;0.80;;;0.80;;
64401;SDS011;50724;42.376;23.768;2023-11-18T07:15:27;2.33;;;0.95;;
64401;SDS011;50724;42.376;23.768;2023-11-18T07:18:28;1.77;;;0.98;;
64401;SDS011;50724;42.376;23.768;2023-11-18T07:21:30;1.83;;;0.98;;
64401;SDS011;50724;42.376;23.768;2023-11-18T07:24:31;2.30;;;1.33;;
64401;SDS011;50724;42.376;23.768;2023-11-18T07:27:35;2.75;;;1.33;;
64401;SDS011;50724;42.376;23.768;2023-11-18T07:30:36;2.00;;;1.10;;
64401;SDS011;50724;42.376;23.768;2023-11-18T07:33:37;2.25;;;1.10;;
64401;SDS011;50724;42.376;23.768;2023-11-18T07:36:37;2.08;;;1.10;;
64401;SDS011;50724;42.376;23.768;2023-11-18T07:39:38;1.60;;;1.00;;
64401;SDS011;50724;42.376;23.768;2023-11-18T07:42:44;1.35;;;0.90;;
64401;SDS011;50724;42.376;23.768;2023-11-18T07:45:45;2.15;;;0.95;;
64401;SDS011;50724;42.376;23.768;2023-11-18T07:48:49;1.70;;;1.02;;
64401;SDS011;50724;42.376;23.768;2023-11-18T07:51:52;1.75;;;0.90;;
64401;SDS011;50724;42.376;23.768;2023-11-18T07:54:52;1.52;;;0.80;;
64401;SDS011;50724;42.376;23.768;2023-11-18T07:57:53;1.70;;;0.80;;
64401;SDS011;50724;42.376;23.768;2023-11-18T08:00:54;1.27;;;0.80;;
64401;SDS011;50724;42.376;23.768;2023-11-18T08:03:54;1.38;;;0.85;;
64401;SDS011;50724;42.376;23.768;2023-11-18T08:06:55;0.77;;;0.67;;
64401;SDS011;50724;42.376;23.768;2023-11-18T08:09:55;0.93;;;0.80;;
64401;SDS011;50724;42.376;23.768;2023-11-18T08:12:57;1.85;;;0.88;;
64401;SDS011;50724;42.376;23.768;2023-11-18T08:15:58;1.45;;;0.95;;
64401;SDS011;50724;42.376;23.768;2023-11-18T08:18:59;0.98;;;0.82;;
64401;SDS011;50724;42.376;23.768;2023-11-18T08:25:04;2.55;;;1.20;;
64401;SDS011;50724;42.376;23.768;2023-11-18T08:28:08;3.05;;;0.95;;
64401;SDS011;50724;42.376;23.768;2023-11-18T08:31:08;1.38;;;0.90;;
64401;SDS011;50724;42.376;23.768;2023-11-18T08:34:09;1.50;;;0.88;;
64401;SDS011;50724;42.376;23.768;2023-11-18T08:37:10;1.63;;;1.00;;
64401;SDS011;50724;42.376;23.768;2023-11-18T08:40:11;1.40;;;0.98;;
64401;SDS011;50724;42.376;23.768;2023-11-18T08:43:15;0.65;;;0.57;;
64401;SDS011;50724;42.376;23.768;2023-11-18T08:46:16;1.17;;;0.98;;
64401;SDS011;50724;42.376;23.768;2023-11-18T08:49:17;0.73;;;0.65;;
64401;SDS011;50724;42.376;23.768;2023-11-18T08:52:21;1.70;;;0.90;;
64401;SDS011;50724;42.376;23.768;2023-11-18T08:55:21;2.05;;;1.20;;
64401;SDS011;50724;42.376;23.768;2023-11-18T08:58:48;1.15;;;0.73;;
64401;SDS011;50724;42.376;23.768;2023-11-18T09:01:52;4.50;;;1.00;;
64401;SDS011;50724;42.376;23.768;2023-11-18T09:04:56;1.50;;;0.98;;
64401;SDS011;50724;42.376;23.768;2023-11-18T09:07:58;2.30;;;0.70;;
64401;SDS011;50724;42.376;23.768;2023-11-18T09:11:01;1.05;;;0.70;;
64401;SDS011;50724;42.376;23.768;2023-11-18T09:14:05;1.80;;;0.85;;
64401;SDS011;50724;42.376;23.768;2023-11-18T09:17:07;1.90;;;0.70;;
64401;SDS011;50724;42.376;23.768;2023-11-18T09:20:07;0.97;;;0.70;;
64401;SDS011;50724;42.376;23.768;2023-11-18T09:23:11;1.67;;;0.85;;
64401;SDS011;50724;42.376;23.768;2023-11-18T09:26:11;0.60;;;0.60;;
64401;SDS011;50724;42.376;23.768;2023-11-18T09:29:12;1.10;;;0.50;;
64401;SDS011;50724;42.376;23.768;2023-11-18T09:32:13;0.98;;;0.70;;
64401;SDS011;50724;42.376;23.768;2023-11-18T09:35:14;0.88;;;0.60;;
64401;SDS011;50724;42.376;23.768;2023-11-18T09:38:17;0.68;;;0.50;;
64401;SDS011;50724;42.376;23.768;2023-11-18T09:41:17;1.33;;;0.70;;
64401;SDS011;50724;42.376;23.768;2023-11-18T09:44:18;0.95;;;0.70;;
64401;SDS011;50724;42.376;23.768;2023-11-18T09:47:27;1.50;;;1.02;;
64401;SDS011;50724;42.376;23.768;2023-11-18T09:50:27;0.93;;;0.70;;
64401;SDS011;50724;42.376;23.768;2023-11-18T09:53:32;1.15;;;0.77;;
64401;SDS011;50724;42.376;23.768;2023-11-18T10:00:08;0.63;;;0.40;;
64401;SDS011;50724;42.376;23.768;2023-11-18T10:03:26;1.67;;;0.90;;
64401;SDS011;50724;42.376;23.768;2023-11-18T10:06:27;3.63;;;0.93;;
64401;SDS011;50724;42.376;23.768;2023-11-18T10:09:28;0.82;;;0.60;;
64401;SDS011;50724;42.376;23.768;2023-11-18T10:12:28;1.42;;;0.80;;
64401;SDS011;50724;42.376;23.768;2023-11-18T10:15:30;0.70;;;0.60;;
64401;SDS011;50724;42.376;23.768;2023-11-18T10:18:31;0.63;;;0.52;;
64401;SDS011;50724;42.376;23.768;2023-11-18T10:21:36;1.00;;;0.63;;
64401;SDS011;50724;42.376;23.768;2023-11-18T10:24:44;0.90;;;0.65;;
64401;SDS011;50724;42.376;23.768;2023-11-18T10:27:45;0.70;;;0.50;;
64401;SDS011;50724;42.376;23.768;2023-11-18T10:30:45;0.73;;;0.63;;
64401;SDS011;50724;42.376;23.768;2023-11-18T10:33:47;2.08;;;1.17;;
64401;SDS011;50724;42.376;23.768;2023-11-18T10:36:59;0.60;;;0.60;;
64401;SDS011;50724;42.376;23.768;2023-11-18T10:40:05;0.70;;;0.70;;
64401;SDS011;50724;42.376;23.768;2023-11-18T10:43:06;0.73;;;0.68;;
64401;SDS011;50724;42.376;23.768;2023-11-18T10:46:10;1.05;;;0.60;;
64401;SDS011;50724;42.376;23.768;2023-11-18T10:49:22;1.15;;;0.75;;
64401;SDS011;50724;42.376;23.768;2023-11-18T10:52:24;1.30;;;0.90;;
64401;SDS011;50724;42.376;23.768;2023-11-18T10:55:34;1.88;;;0.88;;
64401;SDS011;50724;42.376;23.768;2023-11-18T11:01:41;0.80;;;0.80;;
64401;SDS011;50724;42.376;23.768;2023-11-18T11:04:43;0.90;;;0.70;;
64401;SDS011;50724;42.376;23.768;2023-11-18T11:07:45;0.70;;;0.70;;
64401;SDS011;50724;42.376;23.768;2023-11-18T11:10:48;1.17;;;0.73;;
64401;SDS011;50724;42.376;23.768;2023-11-18T11:13:50;1.23;;;0.70;;
64401;SDS011;50724;42.376;23.768;2023-11-18T11:16:56;1.67;;;0.80;;
64401;SDS011;50724;42.376;23.768;2023-11-18T11:20:11;1.67;;;1.10;;
64401;SDS011;50724;42.376;23.768;2023-11-18T11:23:29;1.08;;;0.80;;
64401;SDS011;50724;42.376;23.768;2023-11-18T11:30:01;0.43;;;0.43;;
64401;SDS011;50724;42.376;23.768;2023-11-18T11:33:13;1.38;;;0.90;;
64401;SDS011;50724;42.376;23.768;2023-11-18T11:36:21;2.15;;;0.80;;
64401;SDS011;50724;42.376;23.768;2023-11-18T11:39:27;1.45;;;0.95;;
64401;SDS011;50724;42.376;23.768;2023-11-18T11:42:31;2.10;;;0.95;;
64401;SDS011;50724;42.376;23.768;2023-11-18T11:45:32;1.25;;;0.80;;
64401;SDS011;50724;42.376;23.768;2023-11-18T11:48:34;2.13;;;0.90;;
64401;SDS011;50724;42.376;23.768;2023-11-18T11:51:37;0.68;;;0.45;;
64401;SDS011;50724;42.376;23.768;2023-11-18T11:54:45;1.48;;;1.00;;
64401;SDS011;50724;42.376;23.768;2023-11-18T11:57:56;0.47;;;0.47;;
64401;SDS011;50724;42.376;23.768;2023-11-18T12:01:00;0.82;;;0.70;;
64401;SDS011;50724;42.376;23.768;2023-11-18T12:04:10;1.48;;;0.90;;
64401;SDS011;50724;42.376;23.768;2023-11-18T12:07:20;1.65;;;1.00;;
64401;SDS011;50724;42.376;23.768;2023-11-18T12:10:26;1.30;;;0.90;;
64401;SDS011;50724;42.376;23.768;2023-11-18T12:13:29;1.25;;;0.80;;
64401;SDS011;50724;42.376;23.768;2023-11-18T12:20:37;1.83;;;1.02;;
64401;SDS011;50724;42.376;23.768;2023-11-18T12:24:15;1.25;;;0.80;;
64401;SDS011;50724;42.376;23.768;2023-11-18T12:30:39;3.58;;;1.15;;
64401;SDS011;50724;42.376;23.768;2023-11-18T12:40:18;1.38;;;0.90;;
64401;SDS011;50724;42.376;23.768;2023-11-18T12:43:47;1.65;;;1.02;;
64401;SDS011;50724;42.376;23.768;2023-11-18T12:47:02;1.10;;;0.77;;
64401;SDS011;50724;42.376;23.768;2023-11-18T12:56:25;2.72;;;1.17;;
64401;SDS011;50724;42.376;23.768;2023-11-18T12:59:28;1.83;;;1.08;;
64401;SDS011;50724;42.376;23.768;2023-11-18T13:02:31;1.63;;;0.95;;
64401;SDS011;50724;42.376;23.768;2023-11-18T13:05:32;1.67;;;0.93;;
64401;SDS011;50724;42.376;23.768;2023-11-18T13:08:38;1.08;;;0.88;;
64401;SDS011;50724;42.376;23.768;2023-11-18T13:11:39;1.52;;;0.98;;
64401;SDS011;50724;42.376;23.768;2023-11-18T13:17:56;1.55;;;1.08;;
64401;SDS011;50724;42.376;23.768;2023-11-18T13:21:14;1.65;;;0.90;;
64401;SDS011;50724;42.376;23.768;2023-11-18T13:24:16;2.50;;;1.17;;
64401;SDS011;50724;42.376;23.768;2023-11-18T13:27:18;2.92;;;1.33;;
64401;SDS011;50724;42.376;23.768;2023-11-18T13:30:19;2.75;;;1.05;;
64401;SDS011;50724;42.376;23.768;2023-11-18T13:33:20;1.00;;;0.90;;
64401;SDS011;50724;42.376;23.768;2023-11-18T13:36:21;1.65;;;1.00;;
64401;SDS011;50724;42.376;23.768;2023-11-18T13:39:22;1.70;;;1.05;;
64401;SDS011;50724;42.376;23.768;2023-11-18T13:42:23;1.73;;;1.00;;
64401;SDS011;50724;42.376;23.768;2023-11-18T13:45:28;1.55;;;0.93;;
64401;SDS011;50724;42.376;23.768;2023-11-18T13:48:30;1.80;;;1.10;;
64401;SDS011;50724;42.376;23.768;2023-11-18T13:51:33;2.55;;;1.02;;
64401;SDS011;50724;42.376;23.768;2023-11-18T13:54:36;1.67;;;0.98;;
64401;SDS011;50724;42.376;23.768;2023-11-18T13:57:38;2.53;;;1.20;;
64401;SDS011;50724;42.376;23.768;2023-11-18T14:00:39;2.38;;;1.20;;
64401;SDS011;50724;42.376;23.768;2023-11-18T14:03:40;2.17;;;1.10;;
64401;SDS011;50724;42.376;23.768;2023-11-18T14:06:43;2.55;;;1.40;;
64401;SDS011;50724;42.376;23.768;2023-11-18T14:09:44;2.65;;;1.13;;
64401;SDS011;50724;42.376;23.768;2023-11-18T14:16:19;2.35;;;1.27;;
64401;SDS011;50724;42.376;23.768;2023-11-18T14:19:21;2.10;;;1.25;;
64401;SDS011;50724;42.376;23.768;2023-11-18T14:22:22;2.55;;;1.30;;
64401;SDS011;50724;42.376;23.768;2023-11-18T14:25:23;3.83;;;1.35;;
64401;SDS011;50724;42.376;23.768;2023-11-18T14:28:24;2.95;;;1.40;;
64401;SDS011;50724;42.376;23.768;2023-11-18T14:31:26;2.88;;;1.40;;
64401;SDS011;50724;42.376;23.768;2023-11-18T14:34:26;2.80;;;1.40;;
64401;SDS011;50724;42.376;23.768;2023-11-18T14:37:27;2.72;;;1.30;;
64401;SDS011;50724;42.376;23.768;2023-11-18T14:40:27;1.63;;;1.13;;
64401;SDS011;50724;42.376;23.768;2023-11-18T14:43:28;2.15;;;1.10;;
64401;SDS011;50724;42.376;23.768;2023-11-18T14:46:30;2.80;;;1.13;;
64401;SDS011;50724;42.376;23.768;2023-11-18T14:49:33;1.90;;;1.00;;
64401;SDS011;50724;42.376;23.768;2023-11-18T14:52:34;2.88;;;1.42;;
64401;SDS011;50724;42.376;23.768;2023-11-18T14:55:36;2.30;;;1.23;;
64401;SDS011;50724;42.376;23.768;2023-11-18T14:58:37;5.30;;;1.50;;
64401;SDS011;50724;42.376;23.768;2023-11-18T15:01:37;2.40;;;1.33;;
64401;SDS011;50724;42.376;23.768;2023-11-18T15:04:52;3.22;;;1.60;;
64401;SDS011;50724;42.376;23.768;2023-11-18T15:07:54;3.03;;;1.75;;
64401;SDS011;50724;42.376;23.768;2023-11-18T15:10:55;2.42;;;1.42;;
64401;SDS011;50724;42.376;23.768;2023-11-18T15:13:58;3.80;;;2.00;;
64401;SDS011;50724;42.376;23.768;2023-11-18T15:16:59;4.85;;;1.60;;
64401;SDS011;50724;42.376;23.768;2023-11-18T15:19:59;4.97;;;1.80;;
64401;SDS011;50724;42.376;23.768;2023-11-18T15:23:00;3.28;;;1.80;;
64401;SDS011;50724;42.376;23.768;2023-11-18T15:26:01;3.10;;;1.75;;
64401;SDS011;50724;42.376;23.768;2023-11-18T15:29:01;3.13;;;1.70;;
64401;SDS011;50724;42.376;23.768;2023-11-18T15:32:03;5.78;;;2.65;;
64401;SDS011;50724;42.376;23.768;2023-11-18T15:35:04;4.80;;;2.10;;
64401;SDS011;50724;42.376;23.768;2023-11-18T15:38:09;4.90;;;2.10;;
64401;SDS011;50724;42.376;23.768;2023-11-18T15:41:16;4.78;;;1.90;;
64401;SDS011;50724;42.376;23.768;2023-11-18T15:44:17;3.63;;;2.00;;
64401;SDS011;50724;42.376;23.768;2023-11-18T15:47:19;5.03;;;2.20;;
64401;SDS011;50724;42.376;23.768;2023-11-18T15:50:21;4.28;;;2.42;;
64401;SDS011;50724;42.376;23.768;2023-11-18T15:53:21;4.10;;;2.00;;
64401;SDS011;50724;42.376;23.768;2023-11-18T15:56:22;5.97;;;2.75;;
64401;SDS011;50724;42.376;23.768;2023-11-18T15:59:23;4.07;;;2.13;;
64401;SDS011;50724;42.376;23.768;2023-11-18T16:02:25;3.25;;;2.03;;
64401;SDS011;50724;42.376;23.768;2023-11-18T16:05:26;3.45;;;2.20;;
64401;SDS011;50724;42.376;23.768;2023-11-18T16:08:27;3.22;;;1.83;;
64401;SDS011;50724;42.376;23.768;2023-11-18T16:11:27;5.38;;;2.65;;
64401;SDS011;50724;42.376;23.768;2023-11-18T16:14:28;4.50;;;2.30;;
64401;SDS011;50724;42.376;23.768;2023-11-18T16:17:28;4.05;;;2.17;;
64401;SDS011;50724;42.376;23.768;2023-11-18T16:20:29;3.75;;;2.00;;
64401;SDS011;50724;42.376;23.768;2023-11-18T16:23:34;3.60;;;1.95;;
64401;SDS011;50724;42.376;23.768;2023-11-18T16:26:39;7.57;;;3.05;;
64401;SDS011;50724;42.376;23.768;2023-11-18T16:29:40;3.95;;;2.03;;
64401;SDS011;50724;42.376;23.768;2023-11-18T16:32:41;2.95;;;1.80;;
64401;SDS011;50724;42.376;23.768;2023-11-18T16:35:42;3.72;;;2.00;;
64401;SDS011;50724;42.376;23.768;2023-11-18T16:38:43;4.45;;;2.13;;
64401;SDS011;50724;42.376;23.768;2023-11-18T16:41:43;3.05;;;1.70;;
64401;SDS011;50724;42.376;23.768;2023-11-18T16:44:44;3.47;;;2.00;;
64401;SDS011;50724;42.376;23.768;2023-11-18T16:47:44;4.30;;;2.10;;
64401;SDS011;50724;42.376;23.768;2023-11-18T16:50:45;3.38;;;1.88;;
64401;SDS011;50724;42.376;23.768;2023-11-18T16:53:46;3.40;;;2.08;;
64401;SDS011;50724;42.376;23.768;2023-11-18T16:56:46;4.25;;;1.55;;
64401;SDS011;50724;42.376;23.768;2023-11-18T16:59:46;4.38;;;2.05;;
64401;SDS011;50724;42.376;23.768;2023-11-18T17:02:53;3.22;;;1.70;;
64401;SDS011;50724;42.376;23.768;2023-11-18T17:05:54;3.83;;;2.13;;
64401;SDS011;50724;42.376;23.768;2023-11-18T17:09:03;4.97;;;2.40;;
64401;SDS011;50724;42.376;23.768;2023-11-18T17:12:06;4.10;;;1.92;;
64401;SDS011;50724;42.376;23.768;2023-11-18T17:15:15;3.15;;;1.50;;
64401;SDS011;50724;42.376;23.768;2023-11-18T17:18:16;2.75;;;1.40;;
64401;SDS011;50724;42.376;23.768;2023-11-18T17:21:16;2.97;;;1.67;;
64401;SDS011;50724;42.376;23.768;2023-11-18T17:24:17;2.90;;;1.67;;
64401;SDS011;50724;42.376;23.768;2023-11-18T17:27:18;3.63;;;2.00;;
64401;SDS011;50724;42.376;23.768;2023-11-18T17:30:18;3.50;;;1.90;;
64401;SDS011;50724;42.376;23.768;2023-11-18T17:33:18;3.08;;;1.70;;
64401;SDS011;50724;42.376;23.768;2023-11-18T17:36:19;3.47;;;2.03;;
64401;SDS011;50724;42.376;23.768;2023-11-18T17:39:20;4.13;;;1.60;;
64401;SDS011;50724;42.376;23.768;2023-11-18T17:42:21;3.08;;;1.67;;
64401;SDS011;50724;42.376;23.768;2023-11-18T17:45:21;4.47;;;1.80;;
64401;SDS011;50724;42.376;23.768;2023-11-18T17:48:23;4.35;;;1.60;;
64401;SDS011;50724;42.376;23.768;2023-11-18T17:51:24;3.75;;;2.10;;
64401;SDS011;50724;42.376;23.768;2023-11-18T17:54:24;2.70;;;1.90;;
64401;SDS011;50724;42.376;23.768;2023-11-18T17:57:27;3.25;;;1.60;;
64401;SDS011;50724;42.376;23.768;2023-11-18T18:00:28;2.42;;;1.30;;
64401;SDS011;50724;42.376;23.768;2023-11-18T18:03:28;2.53;;;1.58;;
64401;SDS011;50724;42.376;23.768;2023-11-18T18:06:30;3.60;;;1.77;;
64401;SDS011;50724;42.376;23.768;2023-11-18T18:09:31;4.03;;;1.73;;
64401;SDS011;50724;42.376;23.768;2023-11-18T18:12:32;2.75;;;1.35;;
64401;SDS011;50724;42.376;23.768;2023-11-18T18:15:33;3.35;;;1.67;;
64401;SDS011;50724;42.376;23.768;2023-11-18T18:18:34;2.97;;;1.60;;
64401;SDS011;50724;42.376;23.768;2023-11-18T18:21:34;5.50;;;1.80;;
64401;SDS011;50724;42.376;23.768;2023-11-18T18:24:35;4.32;;;1.83;;
64401;SDS011;50724;42.376;23.768;2023-11-18T18:27:35;2.80;;;1.70;;
64401;SDS011;50724;42.376;23.768;2023-11-18T18:30:36;2.90;;;1.60;;
64401;SDS011;50724;42.376;23.768;2023-11-18T18:33:37;3.30;;;1.73;;
64401;SDS011;50724;42.376;23.768;2023-11-18T18:36:39;3.80;;;1.98;;
64401;SDS011;50724;42.376;23.768;2023-11-18T18:42:42;3.33;;;1.67;;
64401;SDS011;50724;42.376;23.768;2023-11-18T18:45:43;3.97;;;1.98;;
64401;SDS011;50724;42.376;23.768;2023-11-18T18:48:43;3.28;;;1.80;;